Time;durP1;ratioP1;P1;durP2;ratioP2;P2;SDS_P1;SDS_P2;PMS_P1;PMS_P2;Temp;Humidity;BMP_temperature;BMP_pressure;BME280_temperature;BME280_humidity;BME280_pressure;Samples;Min_cycle;Max_cycle;Signal;HPM_P1;HPM_P2
2023/08/20 00:00:11;;;;;;;;;;;24.60;1.00;;;;;;4915661;29;20017;-55
2023/08/20 00:02:41;;;;;;;;;;;24.60;1.00;;;;;;4915912;29;20294;-56
2023/08/20 00:05:08;;;;;;;;;;;24.60;1.00;;;;;;4915669;29;19931;-56
2023/08/20 00:07:35;;;;;;;;;;;24.50;1.00;;;;;;4915461;29;20344;-55
2023/08/20 00:10:04;;;;;;;;;;;24.60;1.00;;;;;;4915605;29;20021;-57
2023/08/20 00:12:31;;;;;;;;;;;24.60;1.00;;;;;;4910003;29;20021;-54
2023/08/20 00:15:04;;;;;;;;;;;24.60;1.00;;;;;;4903772;29;19931;-55
2023/08/20 00:17:32;;;;;;;;;;;24.60;1.00;;;;;;4918978;29;20010;-54
2023/08/20 00:19:59;;;;;;;;;;;24.60;1.00;;;;;;4919081;29;19923;-55
2023/08/20 00:22:26;;;;;;;;;;;24.60;1.00;;;;;;4918897;29;19979;-55
2023/08/20 00:24:53;;;;;;;;;;;24.60;1.00;;;;;;4911018;29;19985;-56
2023/08/20 00:27:20;;;;;;;;;;;24.60;1.00;;;;;;4918305;29;20118;-52
2023/08/20 00:29:47;;;;;;;;;;;24.50;1.00;;;;;;4917439;29;19959;-54
2023/08/20 00:32:14;;;;;;;;;;;24.50;1.00;;;;;;4918858;29;19926;-52
2023/08/20 00:34:41;;;;;;;;;;;24.50;1.00;;;;;;4894976;29;19923;-55
2023/08/20 00:37:08;;;;;;;;;;;24.50;1.00;;;;;;4901902;29;20375;-53
2023/08/20 00:39:35;;;;;;;;;;;24.50;1.00;;;;;;4901650;29;20160;-56
2023/08/20 00:42:02;;;;;;;;;;;24.50;1.00;;;;;;4901578;29;19923;-56
2023/08/20 00:44:53;;;;;;;;;;;24.50;1.00;;;;;;5551868;23;19929;-55
2023/08/20 00:47:20;;;;;;;;;;;24.50;1.00;;;;;;4937647;29;20294;-53
2023/08/20 00:49:48;;;;;;;;;;;24.50;1.00;;;;;;4920220;29;20032;-53
2023/08/20 00:52:16;;;;;;;;;;;24.50;1.00;;;;;;4937421;29;20287;-53
2023/08/20 00:54:47;;;;;;;;;;;24.50;1.00;;;;;;4920117;29;19923;-55
2023/08/20 00:57:15;;;;;;;;;;;24.50;1.00;;;;;;4937370;29;19978;-57
2023/08/20 00:59:41;;;;;;;;;;;24.50;1.00;;;;;;4937194;29;20338;-53
2023/08/20 01:02:08;;;;;;;;;;;24.50;1.00;;;;;;4920196;29;20371;-54
2023/08/20 01:04:35;;;;;;;;;;;24.50;1.00;;;;;;4937538;29;20442;-56
2023/08/20 01:07:23;;;;;;;;;;;24.40;1.00;;;;;;4920114;29;19970;-53
2023/08/20 01:09:57;;;;;;;;;;;24.40;1.00;;;;;;4919976;29;19933;-54
2023/08/20 01:12:26;;;;;;;;;;;24.40;1.00;;;;;;4937011;29;20422;-57
2023/08/20 01:17:46;;;;;;;;;;;24.40;1.00;;;;;;5269099;23;20395;-55
2023/08/20 01:20:13;;;;;;;;;;;24.40;1.00;;;;;;4917907;29;19927;-53
2023/08/20 01:22:44;;;;;;;;;;;24.40;1.00;;;;;;4917256;29;19978;-53
2023/08/20 01:25:29;;;;;;;;;;;24.40;1.00;;;;;;4900900;29;19971;-57
2023/08/20 01:27:59;;;;;;;;;;;24.40;1.00;;;;;;4897997;29;20010;-54
2023/08/20 01:30:26;;;;;;;;;;;24.40;1.00;;;;;;4900709;29;19970;-56
2023/08/20 01:32:53;;;;;;;;;;;24.40;1.00;;;;;;4899152;29;20371;-56
2023/08/20 01:35:23;;;;;;;;;;;24.40;1.00;;;;;;4912687;29;20354;-52
2023/08/20 01:38:01;;;;;;;;;;;24.40;1.00;;;;;;4900876;29;20010;-54
2023/08/20 01:40:29;;;;;;;;;;;24.40;1.00;;;;;;4917546;29;20010;-55
2023/08/20 01:42:56;;;;;;;;;;;24.40;1.00;;;;;;4917448;29;19958;-53
2023/08/20 01:45:23;;;;;;;;;;;24.40;1.00;;;;;;4917455;29;20017;-53
2023/08/20 01:50:39;;;;;;;;;;;24.40;1.00;;;;;;5034453;23;19946;-54
2023/08/20 01:53:06;;;;;;;;;;;24.40;1.00;;;;;;4885129;29;20025;-54
2023/08/20 01:55:32;;;;;;;;;;;24.40;1.00;;;;;;4900354;29;19929;-55
2023/08/20 01:57:59;;;;;;;;;;;24.30;1.00;;;;;;4917175;29;20326;-55
2023/08/20 02:00:27;;;;;;;;;;;24.30;1.00;;;;;;4900295;29;20021;-53
2023/08/20 02:02:57;;;;;;;;;;;24.30;1.00;;;;;;4899994;29;20298;-55
2023/08/20 02:05:24;;;;;;;;;;;24.30;1.00;;;;;;4917181;29;19945;-56
2023/08/20 02:07:51;;;;;;;;;;;24.30;1.00;;;;;;4900187;29;19927;-55
2023/08/20 02:10:18;;;;;;;;;;;24.30;1.00;;;;;;4900147;29;20005;-53
2023/08/20 02:12:45;;;;;;;;;;;24.30;1.00;;;;;;4884239;29;20014;-56
2023/08/20 02:15:11;;;;;;;;;;;24.30;1.00;;;;;;4916530;29;20043;-53
2023/08/20 02:17:38;;;;;;;;;;;24.30;1.00;;;;;;4916945;29;19947;-56
2023/08/20 02:20:05;;;;;;;;;;;24.30;1.00;;;;;;4899924;29;20356;-55
2023/08/20 02:22:34;;;;;;;;;;;24.30;1.00;;;;;;5167147;23;19923;-56
2023/08/20 02:25:01;;;;;;;;;;;24.30;1.00;;;;;;4880960;29;19924;-56
2023/08/20 02:27:27;;;;;;;;;;;24.30;1.00;;;;;;4896489;29;19930;-55
2023/08/20 02:29:54;;;;;;;;;;;24.30;1.00;;;;;;4895890;29;19962;-52
2023/08/20 02:32:21;;;;;;;;;;;24.30;1.00;;;;;;4897553;29;20034;-57
2023/08/20 02:34:50;;;;;;;;;;;24.20;1.00;;;;;;4897324;29;19946;-57
2023/08/20 02:37:17;;;;;;;;;;;24.20;1.00;;;;;;4897871;29;20021;-55
2023/08/20 02:39:44;;;;;;;;;;;24.20;1.00;;;;;;4897716;29;19931;-56
2023/08/20 02:42:11;;;;;;;;;;;24.20;1.00;;;;;;4889942;29;19931;-56
2023/08/20 02:44:37;;;;;;;;;;;24.20;1.00;;;;;;4881019;29;19935;-57
2023/08/20 02:47:04;;;;;;;;;;;24.20;1.00;;;;;;4898107;29;20730;-54
2023/08/20 02:49:31;;;;;;;;;;;24.20;1.00;;;;;;4880841;29;20011;-55
2023/08/20 02:51:58;;;;;;;;;;;24.20;1.00;;;;;;4897642;29;20006;-54
2023/08/20 02:54:25;;;;;;;;;;;24.20;1.00;;;;;;5171162;23;20042;-57
2023/08/20 02:56:52;;;;;;;;;;;24.20;1.00;;;;;;4894212;29;19962;-57
2023/08/20 02:59:19;;;;;;;;;;;24.20;1.00;;;;;;4890893;29;19930;-54
2023/08/20 03:01:46;;;;;;;;;;;24.20;1.00;;;;;;4880973;29;19930;-58
2023/08/20 03:04:13;;;;;;;;;;;24.20;1.00;;;;;;4881698;29;19948;-57
2023/08/20 03:06:40;;;;;;;;;;;24.10;1.00;;;;;;4881835;29;19924;-57
2023/08/20 03:09:07;;;;;;;;;;;24.20;1.00;;;;;;4897994;29;19971;-58
2023/08/20 03:11:34;;;;;;;;;;;24.20;1.00;;;;;;4901806;29;19923;-56
2023/08/20 03:14:00;;;;;;;;;;;24.20;1.00;;;;;;4900244;29;19930;-57
2023/08/20 03:16:27;;;;;;;;;;;24.20;1.00;;;;;;4898653;29;19927;-58
2023/08/20 03:18:54;;;;;;;;;;;24.10;1.00;;;;;;4903240;29;19938;-58
2023/08/20 03:21:21;;;;;;;;;;;24.10;1.00;;;;;;4886922;29;19990;-58
2023/08/20 03:23:48;;;;;;;;;;;24.10;1.00;;;;;;4899392;29;19923;-53
2023/08/20 03:29:09;;;;;;;;;;;24.10;1.00;;;;;;4841220;29;19988;-52
2023/08/20 03:31:37;;;;;;;;;;;24.10;1.00;;;;;;4859772;29;19951;-53
2023/08/20 03:34:04;;;;;;;;;;;24.10;1.00;;;;;;4859881;29;20014;-56
2023/08/20 03:36:32;;;;;;;;;;;24.10;1.00;;;;;;4839920;29;20382;-55
2023/08/20 03:38:58;;;;;;;;;;;24.10;1.00;;;;;;4841216;29;19925;-53
2023/08/20 03:41:25;;;;;;;;;;;24.10;1.00;;;;;;4839977;29;19925;-52
2023/08/20 03:43:52;;;;;;;;;;;24.10;1.00;;;;;;4840062;29;20373;-57
2023/08/20 03:46:19;;;;;;;;;;;24.10;1.00;;;;;;4841112;29;19924;-53
2023/08/20 03:48:46;;;;;;;;;;;24.10;1.00;;;;;;4845093;29;20032;-53
2023/08/20 03:51:13;;;;;;;;;;;24.10;1.00;;;;;;4843292;29;20408;-51
2023/08/20 03:53:41;;;;;;;;;;;24.10;1.00;;;;;;4843781;29;19960;-53
2023/08/20 03:56:07;;;;;;;;;;;24.10;1.00;;;;;;4843489;29;20038;-52
2023/08/20 03:58:34;;;;;;;;;;;24.10;1.00;;;;;;5000215;23;19923;-56
2023/08/20 04:01:01;;;;;;;;;;;24.10;1.00;;;;;;4920891;29;19922;-51
2023/08/20 04:03:28;;;;;;;;;;;24.00;1.00;;;;;;4921321;29;19930;-54
2023/08/20 04:05:55;;;;;;;;;;;24.00;1.00;;;;;;4921111;29;19923;-50
2023/08/20 04:08:22;;;;;;;;;;;24.00;1.00;;;;;;4938188;29;20037;-55
2023/08/20 04:10:49;;;;;;;;;;;24.00;1.00;;;;;;4938133;29;20398;-56
2023/08/20 04:13:16;;;;;;;;;;;24.00;1.00;;;;;;4920971;29;20021;-54
2023/08/20 04:15:43;;;;;;;;;;;24.00;1.00;;;;;;4938155;29;20084;-53
2023/08/20 04:18:10;;;;;;;;;;;24.00;1.00;;;;;;4920872;29;19926;-53
2023/08/20 04:20:37;;;;;;;;;;;24.00;1.00;;;;;;4920886;29;19923;-56
2023/08/20 04:23:04;;;;;;;;;;;24.00;1.00;;;;;;4937662;29;19961;-55
2023/08/20 04:25:30;;;;;;;;;;;24.00;1.00;;;;;;4920606;29;19923;-54
2023/08/20 04:30:54;;;;;;;;;;;24.00;1.00;;;;;;5018313;23;19923;-50
2023/08/20 04:33:23;;;;;;;;;;;24.00;1.00;;;;;;4920052;29;20286;-56
2023/08/20 04:35:52;;;;;;;;;;;24.00;1.00;;;;;;4920329;29;20405;-54
2023/08/20 04:38:20;;;;;;;;;;;24.00;1.00;;;;;;4920467;29;19961;-55
2023/08/20 04:40:47;;;;;;;;;;;24.00;1.00;;;;;;4920450;29;19972;-56
2023/08/20 04:43:14;;;;;;;;;;;24.00;1.00;;;;;;4920527;29;19923;-53
2023/08/20 04:45:41;;;;;;;;;;;24.00;1.00;;;;;;4920430;29;19923;-54
2023/08/20 04:48:08;;;;;;;;;;;24.00;1.00;;;;;;4920061;29;19923;-52
2023/08/20 04:50:35;;;;;;;;;;;24.00;1.00;;;;;;4920272;29;20021;-55
2023/08/20 04:53:03;;;;;;;;;;;23.90;1.00;;;;;;4920178;29;19966;-53
2023/08/20 04:55:30;;;;;;;;;;;23.90;1.00;;;;;;4911891;29;20033;-54
2023/08/20 04:57:57;;;;;;;;;;;23.90;1.00;;;;;;4931138;29;19922;-54
2023/08/20 05:03:12;;;;;;;;;;;23.90;1.00;;;;;;5020647;23;19929;-54
2023/08/20 05:05:39;;;;;;;;;;;23.90;1.00;;;;;;4912024;29;19922;-56
2023/08/20 05:08:07;;;;;;;;;;;23.90;1.00;;;;;;4910968;29;20291;-53
2023/08/20 05:10:37;;;;;;;;;;;23.90;1.00;;;;;;4907129;29;19922;-56
2023/08/20 05:13:04;;;;;;;;;;;23.90;1.00;;;;;;4917996;29;20010;-57
2023/08/20 05:15:31;;;;;;;;;;;23.90;1.00;;;;;;4924927;29;19929;-55
2023/08/20 05:17:58;;;;;;;;;;;23.90;1.00;;;;;;4920009;29;20401;-53
2023/08/20 05:20:25;;;;;;;;;;;23.90;1.00;;;;;;4919870;29;19938;-52
2023/08/20 05:22:51;;;;;;;;;;;23.90;1.00;;;;;;4919843;29;19926;-54
2023/08/20 05:25:18;;;;;;;;;;;23.90;1.00;;;;;;4919683;29;20335;-56
2023/08/20 05:27:46;;;;;;;;;;;23.90;1.00;;;;;;4915756;29;20017;-54
2023/08/20 05:30:13;;;;;;;;;;;23.90;1.00;;;;;;4915453;29;19922;-52
2023/08/20 05:35:32;;;;;;;;;;;23.90;1.00;;;;;;5104514;23;19934;-55
2023/08/20 05:37:59;;;;;;;;;;;23.90;1.00;;;;;;4900093;29;20014;-54
2023/08/20 05:40:26;;;;;;;;;;;23.80;1.00;;;;;;4899713;29;20014;-55
2023/08/20 05:42:53;;;;;;;;;;;23.80;1.00;;;;;;4912507;29;20375;-56
2023/08/20 05:45:20;;;;;;;;;;;23.80;1.00;;;;;;4898970;29;19923;-57
2023/08/20 05:47:48;;;;;;;;;;;23.80;1.00;;;;;;4889528;29;19971;-54
2023/08/20 05:50:15;;;;;;;;;;;23.80;1.00;;;;;;4911790;29;19930;-55
2023/08/20 05:52:42;;;;;;;;;;;23.80;1.00;;;;;;4911346;29;19953;-56
2023/08/20 05:55:11;;;;;;;;;;;23.80;1.00;;;;;;4893161;29;20218;-54
2023/08/20 05:57:38;;;;;;;;;;;23.80;1.00;;;;;;4895337;29;19930;-56
2023/08/20 06:00:05;;;;;;;;;;;23.80;1.00;;;;;;4899718;29;19930;-58
2023/08/20 06:02:39;;;;;;;;;;;23.80;1.00;;;;;;4911758;29;20013;-57
2023/08/20 06:05:07;;;;;;;;;;;23.80;1.00;;;;;;4898320;29;20044;-57
2023/08/20 06:07:34;;;;;;;;;;;23.80;1.00;;;;;;5309996;23;20037;-56
2023/08/20 06:10:01;;;;;;;;;;;23.80;1.00;;;;;;4896723;29;19933;-49
2023/08/20 06:12:28;;;;;;;;;;;23.80;1.00;;;;;;4902462;29;20006;-52
2023/08/20 06:14:54;;;;;;;;;;;23.80;1.00;;;;;;4900079;29;19924;-53
2023/08/20 06:17:21;;;;;;;;;;;23.80;1.00;;;;;;4885562;29;19924;-54
2023/08/20 06:19:48;;;;;;;;;;;23.80;1.00;;;;;;4886705;29;19958;-55
2023/08/20 06:22:15;;;;;;;;;;;23.80;1.00;;;;;;4885918;29;19971;-55
2023/08/20 06:24:41;;;;;;;;;;;23.80;1.00;;;;;;4887639;29;20390;-54
2023/08/20 06:27:08;;;;;;;;;;;23.80;1.00;;;;;;4886441;29;19923;-57
2023/08/20 06:29:35;;;;;;;;;;;23.80;1.00;;;;;;4886671;29;20043;-55
2023/08/20 06:32:01;;;;;;;;;;;23.80;1.00;;;;;;4885765;29;19972;-57
2023/08/20 06:34:28;;;;;;;;;;;23.80;1.00;;;;;;4885589;29;20327;-53
2023/08/20 06:36:55;;;;;;;;;;;23.80;1.00;;;;;;4892443;29;20042;-53
2023/08/20 06:39:22;;;;;;;;;;;23.80;1.00;;;;;;4896789;29;19925;-56
2023/08/20 06:41:49;;;;;;;;;;;23.80;1.00;;;;;;4892657;29;19924;-56
2023/08/20 06:44:19;;;;;;;;;;;23.80;1.00;;;;;;4892516;29;19999;-55
2023/08/20 06:46:46;;;;;;;;;;;23.80;1.00;;;;;;4891999;29;19923;-55
2023/08/20 06:49:13;;;;;;;;;;;23.80;1.00;;;;;;4891870;29;19974;-53
2023/08/20 06:51:40;;;;;;;;;;;23.80;1.00;;;;;;4887323;29;19929;-56
2023/08/20 06:54:07;;;;;;;;;;;23.80;1.00;;;;;;4890355;29;19927;-56
2023/08/20 06:56:34;;;;;;;;;;;23.80;1.00;;;;;;4886190;29;19928;-56
2023/08/20 06:59:03;;;;;;;;;;;23.80;1.00;;;;;;4891462;29;19929;-54
2023/08/20 07:01:29;;;;;;;;;;;23.80;1.00;;;;;;4897499;29;20296;-57
2023/08/20 07:03:56;;;;;;;;;;;23.80;1.00;;;;;;4895876;29;20050;-55
2023/08/20 07:06:23;;;;;;;;;;;23.80;1.00;;;;;;4888311;29;20356;-57
2023/08/20 07:11:28;;;;;;;;;;;23.80;1.00;;;;;;4890724;29;19963;-55
2023/08/20 07:13:54;;;;;;;;;;;23.80;1.00;;;;;;4889477;29;20337;-54
2023/08/20 07:16:21;;;;;;;;;;;23.80;1.00;;;;;;4876022;29;19972;-53
2023/08/20 07:18:48;;;;;;;;;;;23.80;1.00;;;;;;4867477;29;19930;-56
2023/08/20 07:21:15;;;;;;;;;;;23.80;1.00;;;;;;4870937;29;19924;-56
2023/08/20 07:23:41;;;;;;;;;;;23.80;1.00;;;;;;4866947;29;19947;-55
2023/08/20 07:26:09;;;;;;;;;;;23.80;1.00;;;;;;4866112;29;20023;-58
2023/08/20 07:31:22;;;;;;;;;;;23.80;1.00;;;;;;4882093;29;19978;-56
2023/08/20 07:33:49;;;;;;;;;;;23.90;1.00;;;;;;4872298;29;19923;-54
2023/08/20 07:36:16;;;;;;;;;;;23.90;1.00;;;;;;4878868;29;19923;-54
2023/08/20 07:38:43;;;;;;;;;;;23.90;1.00;;;;;;4871207;29;19977;-56
2023/08/20 07:41:11;;;;;;;;;;;23.90;1.00;;;;;;4876192;29;19927;-56
2023/08/20 07:43:38;;;;;;;;;;;23.90;1.00;;;;;;4872721;29;19924;-55
2023/08/20 07:46:05;;;;;;;;;;;23.90;1.00;;;;;;4866097;29;19928;-56
2023/08/20 07:48:33;;;;;;;;;;;23.90;1.00;;;;;;4863589;29;19996;-55
2023/08/20 07:51:00;;;;;;;;;;;23.90;1.00;;;;;;4867212;29;20299;-56
2023/08/20 07:53:27;;;;;;;;;;;23.90;1.00;;;;;;4859776;29;19980;-58
2023/08/20 07:55:54;;;;;;;;;;;23.90;1.00;;;;;;4859614;29;19924;-54
2023/08/20 07:58:20;;;;;;;;;;;24.00;1.00;;;;;;4859514;29;19939;-56
2023/08/20 08:00:47;;;;;;;;;;;24.00;1.00;;;;;;4876393;29;19984;-55
2023/08/20 08:03:17;;;;;;;;;;;24.00;1.00;;;;;;4880434;29;19930;-58
2023/08/20 08:05:48;;;;;;;;;;;24.00;1.00;;;;;;4866869;29;19931;-54
2023/08/20 08:08:18;;;;;;;;;;;24.00;1.00;;;;;;4872771;29;19928;-57
2023/08/20 08:10:45;;;;;;;;;;;24.00;1.00;;;;;;5117098;23;19944;-57
2023/08/20 08:13:12;;;;;;;;;;;24.00;1.00;;;;;;4932858;29;19929;-54
2023/08/20 08:15:39;;;;;;;;;;;24.00;1.00;;;;;;4922003;29;19922;-52
2023/08/20 08:18:07;;;;;;;;;;;24.00;1.00;;;;;;4919966;29;19959;-56
2023/08/20 08:20:34;;;;;;;;;;;24.00;1.00;;;;;;4915186;29;19923;-56
2023/08/20 08:23:01;;;;;;;;;;;24.00;1.00;;;;;;4915681;29;19931;-56
2023/08/20 08:25:28;;;;;;;;;;;24.00;1.00;;;;;;4921195;29;19930;-56
2023/08/20 08:27:55;;;;;;;;;;;24.00;1.00;;;;;;4926415;29;20267;-55
2023/08/20 08:30:27;;;;;;;;;;;24.00;1.00;;;;;;4925651;29;19930;-54
2023/08/20 08:32:53;;;;;;;;;;;24.00;1.00;;;;;;4926996;29;20038;-55
2023/08/20 08:35:21;;;;;;;;;;;24.00;1.00;;;;;;4929865;29;20632;-52
2023/08/20 08:37:48;;;;;;;;;;;24.00;1.00;;;;;;4937718;29;20319;-53
2023/08/20 08:40:15;;;;;;;;;;;24.00;1.00;;;;;;4937649;29;20375;-57
2023/08/20 08:45:45;;;;;;;;;;;24.00;1.00;;;;;;4996897;23;19929;-56
2023/08/20 08:48:12;;;;;;;;;;;24.00;1.00;;;;;;4937246;29;20383;-56
2023/08/20 08:50:39;;;;;;;;;;;24.00;1.00;;;;;;4937300;29;20047;-54
2023/08/20 08:53:07;;;;;;;;;;;24.00;1.00;;;;;;4937102;29;19933;-54
2023/08/20 08:55:34;;;;;;;;;;;24.00;1.00;;;;;;4920329;29;19923;-56
2023/08/20 08:58:01;;;;;;;;;;;24.00;1.00;;;;;;4932642;29;19939;-55
2023/08/20 09:00:31;;;;;;;;;;;24.00;1.00;;;;;;4935184;29;19970;-54
2023/08/20 09:02:58;;;;;;;;;;;24.00;1.00;;;;;;4937122;29;19923;-55
2023/08/20 09:05:25;;;;;;;;;;;24.00;1.00;;;;;;4937054;29;20421;-56
2023/08/20 09:07:56;;;;;;;;;;;24.00;1.00;;;;;;4930180;29;19923;-57
2023/08/20 09:10:27;;;;;;;;;;;24.00;1.00;;;;;;4929382;29;19930;-55
2023/08/20 09:12:56;;;;;;;;;;;24.00;1.00;;;;;;4930362;29;19927;-56
2023/08/20 09:18:14;;;;;;;;;;;24.00;1.00;;;;;;5029946;23;20298;-51
2023/08/20 09:20:41;;;;;;;;;;;24.00;1.00;;;;;;4911475;29;20022;-53
2023/08/20 09:23:14;;;;;;;;;;;24.00;1.00;;;;;;4915719;29;19927;-59
2023/08/20 09:25:45;;;;;;;;;;;24.00;1.00;;;;;;4909744;29;19951;-54
2023/08/20 09:28:12;;;;;;;;;;;24.10;1.00;;;;;;4912191;29;19979;-52
2023/08/20 09:30:41;;;;;;;;;;;24.10;1.00;;;;;;4911969;29;20391;-57
2023/08/20 09:33:10;;;;;;;;;;;24.10;1.00;;;;;;4911222;29;19923;-54
2023/08/20 09:35:37;;;;;;;;;;;24.10;1.00;;;;;;4904280;29;19930;-55
2023/08/20 09:38:04;;;;;;;;;;;24.10;1.00;;;;;;4908402;29;20010;-55
2023/08/20 09:40:31;;;;;;;;;;;24.10;1.00;;;;;;4909458;29;20407;-55
2023/08/20 09:43:00;;;;;;;;;;;24.10;1.00;;;;;;4912275;29;19950;-55
2023/08/20 09:45:28;;;;;;;;;;;24.10;1.00;;;;;;4907390;29;19930;-57
2023/08/20 09:47:56;;;;;;;;;;;24.10;1.00;;;;;;4909633;29;20299;-58
2023/08/20 09:50:24;;;;;;;;;;;24.10;1.00;;;;;;5063890;23;19923;-54
2023/08/20 09:53:06;;;;;;;;;;;24.10;1.00;;;;;;4909638;29;19950;-57
2023/08/20 09:55:35;;;;;;;;;;;24.10;1.00;;;;;;4918093;29;19930;-57
2023/08/20 09:58:02;;;;;;;;;;;24.10;1.00;;;;;;4909482;29;19930;-57
2023/08/20 10:00:29;;;;;;;;;;;24.10;1.00;;;;;;4914265;29;19927;-57
2023/08/20 10:02:57;;;;;;;;;;;24.10;1.00;;;;;;4924250;29;19922;-53
2023/08/20 10:05:24;;;;;;;;;;;24.10;1.00;;;;;;4933207;29;19922;-59
2023/08/20 10:07:52;;;;;;;;;;;24.10;1.00;;;;;;4912250;29;19928;-53
2023/08/20 10:10:19;;;;;;;;;;;24.10;1.00;;;;;;4909225;29;20017;-54
2023/08/20 10:12:46;;;;;;;;;;;24.10;1.00;;;;;;4913616;29;20294;-58
2023/08/20 10:15:13;;;;;;;;;;;24.10;1.00;;;;;;4909128;29;19977;-52
2023/08/20 10:17:44;;;;;;;;;;;24.10;1.00;;;;;;4932505;29;19978;-58
2023/08/20 10:20:13;;;;;;;;;;;24.10;1.00;;;;;;4929164;29;19922;-57
2023/08/20 10:22:41;;;;;;;;;;;24.10;1.00;;;;;;4926424;29;20335;-58
2023/08/20 10:25:08;;;;;;;;;;;24.10;1.00;;;;;;4922740;29;20017;-58
2023/08/20 10:27:40;;;;;;;;;;;24.10;1.00;;;;;;4934178;29;21031;-55
2023/08/20 10:30:15;;;;;;;;;;;24.10;1.00;;;;;;4935581;29;20291;-58
2023/08/20 10:32:56;;;;;;;;;;;24.10;1.00;;;;;;4935239;29;20275;-57
2023/08/20 10:35:23;;;;;;;;;;;24.10;1.00;;;;;;4931650;29;19923;-54
2023/08/20 10:38:07;;;;;;;;;;;24.10;1.00;;;;;;4935383;29;19978;-56
2023/08/20 10:40:49;;;;;;;;;;;24.20;1.00;;;;;;4935560;29;20017;-53
2023/08/20 10:43:34;;;;;;;;;;;24.20;1.00;;;;;;4935410;29;19945;-54
2023/08/20 10:46:07;;;;;;;;;;;24.20;1.00;;;;;;4918247;29;19922;-54
2023/08/20 10:48:38;;;;;;;;;;;24.20;1.00;;;;;;4935432;29;19923;-58
2023/08/20 10:51:10;;;;;;;;;;;24.20;1.00;;;;;;4981923;23;19923;-55
2023/08/20 10:53:37;;;;;;;;;;;24.20;1.00;;;;;;4935430;29;19922;-53
2023/08/20 10:56:14;;;;;;;;;;;24.20;1.00;;;;;;4922254;29;20225;-53
2023/08/20 10:58:42;;;;;;;;;;;24.20;1.00;;;;;;4916160;29;19923;-56
2023/08/20 11:01:12;;;;;;;;;;;24.20;1.00;;;;;;4915981;29;19926;-55
2023/08/20 11:03:39;;;;;;;;;;;24.20;1.00;;;;;;4916310;29;20012;-56
2023/08/20 11:06:07;;;;;;;;;;;24.20;1.00;;;;;;4916474;29;19923;-54
2023/08/20 11:08:34;;;;;;;;;;;24.20;1.00;;;;;;4916035;29;19970;-57
2023/08/20 11:11:01;;;;;;;;;;;24.20;1.00;;;;;;4898647;29;19923;-55
2023/08/20 11:13:29;;;;;;;;;;;24.20;1.00;;;;;;4912734;29;19923;-52
2023/08/20 11:15:57;;;;;;;;;;;24.20;1.00;;;;;;4893880;29;19923;-54
2023/08/20 11:18:24;;;;;;;;;;;24.20;1.00;;;;;;4916230;29;19967;-54
2023/08/20 11:20:51;;;;;;;;;;;24.20;1.00;;;;;;4911392;29;19931;-56
2023/08/20 11:23:18;;;;;;;;;;;24.20;1.00;;;;;;4915951;29;19923;-55
2023/08/20 11:25:45;;;;;;;;;;;24.20;1.00;;;;;;4915872;29;20026;-50
2023/08/20 11:28:12;;;;;;;;;;;24.20;1.00;;;;;;4913866;29;20430;-54
2023/08/20 11:30:39;;;;;;;;;;;24.20;1.00;;;;;;4915606;29;20038;-56
2023/08/20 11:33:05;;;;;;;;;;;24.20;1.00;;;;;;4912692;29;19923;-57
2023/08/20 11:35:33;;;;;;;;;;;24.20;1.00;;;;;;4912605;29;20016;-56
2023/08/20 11:38:00;;;;;;;;;;;24.20;1.00;;;;;;4915874;29;19923;-54
2023/08/20 11:40:27;;;;;;;;;;;24.20;1.00;;;;;;4914321;29;20379;-57
2023/08/20 11:42:53;;;;;;;;;;;24.20;1.00;;;;;;4887800;29;20363;-55
2023/08/20 11:45:20;;;;;;;;;;;24.20;1.00;;;;;;4890871;29;19927;-57
2023/08/20 11:47:47;;;;;;;;;;;24.20;1.00;;;;;;4912333;29;20064;-57
2023/08/20 11:50:14;;;;;;;;;;;24.20;1.00;;;;;;4915484;29;19971;-54
2023/08/20 11:52:41;;;;;;;;;;;24.20;1.00;;;;;;5098865;23;19930;-55
2023/08/20 11:55:09;;;;;;;;;;;24.20;1.00;;;;;;4919364;29;20451;-54
2023/08/20 11:57:36;;;;;;;;;;;24.20;1.00;;;;;;4921530;29;20272;-53
2023/08/20 12:00:13;;;;;;;;;;;24.20;1.00;;;;;;4919003;29;20453;-55
2023/08/20 12:02:41;;;;;;;;;;;24.20;1.00;;;;;;4923066;29;19929;-53
2023/08/20 12:05:07;;;;;;;;;;;24.20;1.00;;;;;;4909686;29;19988;-51
2023/08/20 12:07:34;;;;;;;;;;;24.20;1.00;;;;;;4925480;29;19993;-54
2023/08/20 12:10:19;;;;;;;;;;;24.20;1.00;;;;;;4928013;29;19965;-53
2023/08/20 12:12:45;;;;;;;;;;;24.20;1.00;;;;;;4918806;29;19957;-53
2023/08/20 12:15:15;;;;;;;;;;;24.20;1.00;;;;;;4933596;29;19923;-55
2023/08/20 12:17:42;;;;;;;;;;;24.20;1.00;;;;;;4938046;29;19962;-57
2023/08/20 12:20:12;;;;;;;;;;;24.20;1.00;;;;;;4934166;29;19930;-56
2023/08/20 12:22:39;;;;;;;;;;;24.20;1.00;;;;;;4935031;29;20318;-55
2023/08/20 12:25:06;;;;;;;;;;;24.20;1.00;;;;;;4937953;29;19923;-55
2023/08/20 12:27:33;;;;;;;;;;;24.20;1.00;;;;;;4935508;29;20421;-53
2023/08/20 12:30:01;;;;;;;;;;;24.20;1.00;;;;;;4937705;29;20339;-57
2023/08/20 12:32:28;;;;;;;;;;;24.20;1.00;;;;;;4937684;29;19929;-55
2023/08/20 12:34:55;;;;;;;;;;;24.20;1.00;;;;;;4930354;29;19926;-57
2023/08/20 12:37:21;;;;;;;;;;;24.20;1.00;;;;;;4937895;29;19930;-53
2023/08/20 12:39:48;;;;;;;;;;;24.20;1.00;;;;;;4937628;29;19930;-57
2023/08/20 12:42:15;;;;;;;;;;;24.20;1.00;;;;;;4937422;29;19923;-55
2023/08/20 12:44:42;;;;;;;;;;;24.20;1.00;;;;;;4937549;29;19929;-54
2023/08/20 12:47:09;;;;;;;;;;;24.20;1.00;;;;;;4937772;29;19923;-57
2023/08/20 12:49:35;;;;;;;;;;;24.20;1.00;;;;;;4937488;29;19923;-57
2023/08/20 12:52:03;;;;;;;;;;;24.20;1.00;;;;;;4935810;29;19910;-56
2023/08/20 12:54:29;;;;;;;;;;;24.20;1.00;;;;;;4928549;29;20331;-54
2023/08/20 12:56:56;;;;;;;;;;;24.20;1.00;;;;;;4925091;29;20482;-57
2023/08/20 12:59:23;;;;;;;;;;;24.20;1.00;;;;;;4937196;29;20344;-54
2023/08/20 13:01:52;;;;;;;;;;;24.20;1.00;;;;;;4937158;29;19922;-52
2023/08/20 13:04:19;;;;;;;;;;;24.20;1.00;;;;;;4925471;29;19923;-55
2023/08/20 13:06:47;;;;;;;;;;;24.20;1.00;;;;;;4917594;29;20200;-55
2023/08/20 13:09:15;;;;;;;;;;;24.20;1.00;;;;;;4927809;29;20426;-57
2023/08/20 13:11:42;;;;;;;;;;;24.20;1.00;;;;;;4936066;29;19923;-56
2023/08/20 13:14:09;;;;;;;;;;;24.20;1.00;;;;;;4937014;29;20013;-57
2023/08/20 13:16:36;;;;;;;;;;;24.20;1.00;;;;;;4937761;29;19965;-56
2023/08/20 13:19:03;;;;;;;;;;;24.20;1.00;;;;;;4935282;29;19926;-53
2023/08/20 13:21:30;;;;;;;;;;;24.20;1.00;;;;;;4936885;29;19923;-55
2023/08/20 13:23:56;;;;;;;;;;;24.20;1.00;;;;;;5381134;23;19927;-57
2023/08/20 13:26:23;;;;;;;;;;;24.20;1.00;;;;;;4933304;29;19929;-56
2023/08/20 13:28:50;;;;;;;;;;;24.20;1.00;;;;;;4928956;29;19923;-54
2023/08/20 13:31:17;;;;;;;;;;;24.20;1.00;;;;;;4914576;29;20055;-52
2023/08/20 13:33:43;;;;;;;;;;;24.20;1.00;;;;;;4910878;29;19930;-55
2023/08/20 13:36:10;;;;;;;;;;;24.20;1.00;;;;;;4919562;29;19966;-57
2023/08/20 13:38:37;;;;;;;;;;;24.20;1.00;;;;;;4925773;29;20231;-57
2023/08/20 13:41:04;;;;;;;;;;;24.20;1.00;;;;;;4924850;29;20450;-53
2023/08/20 13:43:30;;;;;;;;;;;24.20;1.00;;;;;;4934389;29;19922;-55
2023/08/20 13:45:57;;;;;;;;;;;24.20;1.00;;;;;;4936162;29;20369;-53
2023/08/20 13:48:24;;;;;;;;;;;24.20;1.00;;;;;;4936563;29;19929;-55
2023/08/20 13:50:51;;;;;;;;;;;24.20;1.00;;;;;;4920721;29;19923;-58
2023/08/20 13:53:18;;;;;;;;;;;24.20;1.00;;;;;;4935438;29;20461;-54
2023/08/20 13:58:49;;;;;;;;;;;24.20;1.00;;;;;;4893912;29;19929;-55
2023/08/20 14:01:16;;;;;;;;;;;24.20;1.00;;;;;;4898221;29;19923;-53
2023/08/20 14:03:43;;;;;;;;;;;24.20;1.00;;;;;;4898339;29;20066;-58
2023/08/20 14:06:10;;;;;;;;;;;24.20;1.00;;;;;;4898156;29;19971;-57
2023/08/20 14:08:36;;;;;;;;;;;24.20;1.00;;;;;;4898298;29;19924;-53
2023/08/20 14:11:03;;;;;;;;;;;24.20;1.00;;;;;;4897922;29;19934;-55
2023/08/20 14:13:30;;;;;;;;;;;24.20;1.00;;;;;;4898183;29;20383;-55
2023/08/20 14:15:56;;;;;;;;;;;24.20;1.00;;;;;;4898129;29;20022;-55
2023/08/20 14:18:23;;;;;;;;;;;24.20;1.00;;;;;;4898098;29;19943;-57
2023/08/20 14:20:50;;;;;;;;;;;24.20;1.00;;;;;;4897795;29;19931;-53
2023/08/20 14:23:17;;;;;;;;;;;24.20;1.00;;;;;;4897969;29;19923;-56
2023/08/20 14:25:44;;;;;;;;;;;24.20;1.00;;;;;;4897917;29;19967;-60
2023/08/20 14:28:11;;;;;;;;;;;24.20;1.00;;;;;;4898401;29;19917;-54
2023/08/20 14:30:38;;;;;;;;;;;24.20;1.00;;;;;;4897646;29;19988;-56
2023/08/20 14:33:05;;;;;;;;;;;24.20;1.00;;;;;;4897611;29;19923;-55
2023/08/20 14:35:32;;;;;;;;;;;24.20;1.00;;;;;;4897740;29;19945;-56
2023/08/20 14:37:58;;;;;;;;;;;24.30;1.00;;;;;;4897703;29;19923;-58
2023/08/20 14:40:25;;;;;;;;;;;24.20;1.00;;;;;;4897637;29;19923;-53
2023/08/20 14:42:52;;;;;;;;;;;24.20;1.00;;;;;;4897492;29;19923;-56
2023/08/20 14:45:19;;;;;;;;;;;24.20;1.00;;;;;;4897519;29;20411;-58
2023/08/20 14:47:45;;;;;;;;;;;24.20;1.00;;;;;;4897663;29;20398;-55
2023/08/20 14:50:12;;;;;;;;;;;24.30;1.00;;;;;;4897393;29;20022;-56
2023/08/20 14:52:39;;;;;;;;;;;24.20;1.00;;;;;;4897169;29;19930;-57
2023/08/20 14:55:08;;;;;;;;;;;24.30;1.00;;;;;;4889694;29;20349;-55
2023/08/20 14:57:35;;;;;;;;;;;24.30;1.00;;;;;;4881882;29;19924;-56
2023/08/20 15:00:17;;;;;;;;;;;24.30;1.00;;;;;;4879750;29;19931;-57
2023/08/20 15:02:44;;;;;;;;;;;24.30;1.00;;;;;;4871480;29;19935;-56
2023/08/20 15:05:11;;;;;;;;;;;24.30;1.00;;;;;;4872299;29;20097;-57